Time;durP1;ratioP1;P1;durP2;ratioP2;P2;SDS_P1;SDS_P2;PMS_P1;PMS_P2;Temp;Humidity;BMP_temperature;BMP_pressure;BME280_temperature;BME280_humidity;BME280_pressure;Samples;Min_cycle;Max_cycle;Signal;HPM_P1;HPM_P2
2022/06/14 07:17:18;;;;;;;4.50;2.10;;;;;;;;;;10649368;27;20125;-85
2022/06/14 07:22:55;;;;;;;7.43;1.85;;;;;;;;;;10632838;27;20042;-85
2022/06/14 07:28:23;;;;;;;3.72;1.20;;;;;;;;;;10626430;27;20031;-86
2022/06/14 07:33:36;;;;;;;5.78;1.75;;;;;;;;;;10652432;27;20027;-85
2022/06/14 07:39:01;;;;;;;5.93;1.70;;;;;;;;;;10663808;27;20039;-86
2022/06/14 07:44:22;;;;;;;4.82;1.55;;;;;;;;;;10630724;27;20045;-85
2022/06/14 07:49:39;;;;;;;4.00;1.60;;;;;;;;;;10628619;27;20133;-85
2022/06/14 07:55:00;;;;;;;7.40;2.33;;;;;;;;;;10629441;27;20019;-85
2022/06/14 08:05:36;;;;;;;7.13;2.50;;;;;;;;;;10652885;27;20400;-84
2022/06/14 08:10:58;;;;;;;6.63;2.38;;;;;;;;;;10627385;27;20023;-86
2022/06/14 08:16:25;;;;;;;7.97;3.10;;;;;;;;;;10617417;27;20039;-83
2022/06/14 08:21:53;;;;;;;5.65;2.83;;;;;;;;;;10627860;27;20104;-83
2022/06/14 08:27:03;;;;;;;5.70;2.65;;;;;;;;;;10626675;27;20023;-86
2022/06/14 08:32:27;;;;;;;6.13;2.87;;;;;;;;;;10645146;27;20518;-87
2022/06/14 08:37:37;;;;;;;6.70;2.55;;;;;;;;;;10622843;27;20585;-85
2022/06/14 08:42:41;;;;;;;6.68;3.00;;;;;;;;;;10624190;27;20027;-86
2022/06/14 08:47:52;;;;;;;5.85;2.80;;;;;;;;;;10619815;27;20019;-87
2022/06/14 08:53:20;;;;;;;6.35;3.15;;;;;;;;;;10625186;27;20026;-86
2022/06/14 08:58:21;;;;;;;8.48;6.00;;;;;;;;;;10585821;27;20070;-85
2022/06/14 09:03:26;;;;;;;10.13;6.50;;;;;;;;;;10625720;27;20023;-86
2022/06/14 09:08:39;;;;;;;13.50;5.32;;;;;;;;;;10623471;27;20027;-83
2022/06/14 09:13:58;;;;;;;9.55;5.70;;;;;;;;;;10622894;27;20119;-85
2022/06/14 09:19:08;;;;;;;8.23;4.70;;;;;;;;;;10620918;27;20034;-86
2022/06/14 09:24:15;;;;;;;6.35;4.18;;;;;;;;;;10621531;27;20023;-86
2022/06/14 09:29:35;;;;;;;7.53;3.85;;;;;;;;;;10619648;27;20122;-86
2022/06/14 09:34:49;;;;;;;6.53;3.58;;;;;;;;;;10632128;27;20019;-86
2022/06/14 09:40:12;;;;;;;5.80;3.30;;;;;;;;;;10640224;27;20485;-86
2022/06/14 09:45:19;;;;;;;5.60;3.95;;;;;;;;;;10615648;27;20016;-86
2022/06/14 09:50:42;;;;;;;4.90;3.20;;;;;;;;;;10620383;27;20477;-86
2022/06/14 09:55:46;;;;;;;7.68;3.50;;;;;;;;;;10616342;27;20042;-86
2022/06/14 10:00:49;;;;;;;5.88;3.17;;;;;;;;;;10614551;28;20083;-85
2022/06/14 10:05:50;;;;;;;6.32;3.42;;;;;;;;;;10613864;28;20504;-86
2022/06/14 10:10:57;;;;;;;5.85;3.08;;;;;;;;;;10615310;28;20027;-85
2022/06/14 10:16:17;;;;;;;6.78;3.00;;;;;;;;;;10621474;28;20031;-84
2022/06/14 10:21:23;;;;;;;10.18;4.15;;;;;;;;;;10621847;28;20039;-85
2022/06/14 10:32:12;;;;;;;4.45;3.17;;;;;;;;;;10639570;28;20054;-84
2022/06/14 10:37:32;;;;;;;4.65;3.10;;;;;;;;;;10621498;28;20019;-84
2022/06/14 10:42:42;;;;;;;4.45;2.95;;;;;;;;;;10620481;28;20023;-84
2022/06/14 10:47:44;;;;;;;;;;;;;;;;;;10624561;27;20481;-84
2022/06/14 10:52:45;;;;;;;6.57;3.53;;;;;;;;;;10629020;27;19903;-83
2022/06/14 10:57:46;;;;;;;5.75;3.25;;;;;;;;;;10645020;27;20031;-84
2022/06/14 11:02:57;;;;;;;11.73;7.38;;;;;;;;;;10628586;27;20022;-85
2022/06/14 11:08:04;;;;;;;5.10;2.70;;;;;;;;;;10644792;27;20019;-84
2022/06/14 11:13:22;;;;;;;7.47;2.53;;;;;;;;;;10643110;27;20058;-84
2022/06/14 11:18:42;;;;;;;5.95;2.45;;;;;;;;;;10627081;27;20035;-83
2022/06/14 11:23:56;;;;;;;4.10;2.50;;;;;;;;;;10633764;27;20023;-83
2022/06/14 11:29:06;;;;;;;6.40;2.90;;;;;;;;;;10498377;22;20051;-83
2022/06/14 11:34:07;;;;;;;5.18;2.70;;;;;;;;;;10456822;28;20110;-81
2022/06/14 11:39:24;;;;;;;7.68;2.85;;;;;;;;;;10416373;28;20036;-83
2022/06/14 11:44:36;;;;;;;4.30;2.40;;;;;;;;;;10411043;28;20025;-83
2022/06/14 11:49:45;;;;;;;3.88;2.10;;;;;;;;;;10413593;28;20064;-82
2022/06/14 11:55:22;;;;;;;5.63;2.50;;;;;;;;;;10413358;28;20024;-83
2022/06/14 12:00:29;;;;;;;6.80;2.78;;;;;;;;;;10310312;28;20034;-82
2022/06/14 12:05:44;;;;;;;2.78;2.03;;;;;;;;;;10407929;28;20064;-80
2022/06/14 12:10:54;;;;;;;4.78;2.42;;;;;;;;;;10409559;28;20045;-82
2022/06/14 12:16:07;;;;;;;6.53;2.15;;;;;;;;;;10414121;28;20030;-82
2022/06/14 12:21:17;;;;;;;7.45;3.03;;;;;;;;;;10415624;28;20491;-81
2022/06/14 12:26:39;;;;;;;6.03;3.60;;;;;;;;;;10416622;28;20044;-81
2022/06/14 12:31:40;;;;;;;4.40;2.03;;;;;;;;;;10404613;28;20109;-81
2022/06/14 12:36:47;;;;;;;5.88;2.20;;;;;;;;;;10414798;28;20029;-83
2022/06/14 12:41:55;;;;;;;6.68;3.08;;;;;;;;;;10414975;28;20175;-83
2022/06/14 12:47:00;;;;;;;4.88;2.20;;;;;;;;;;10413495;28;20332;-82
2022/06/14 12:52:24;;;;;;;3.08;2.15;;;;;;;;;;10431519;28;20045;-82
2022/06/14 12:57:38;;;;;;;4.03;2.30;;;;;;;;;;10407333;28;20120;-82
2022/06/14 13:02:45;;;;;;;6.18;2.30;;;;;;;;;;10429931;28;20438;-82
2022/06/14 13:07:55;;;;;;;6.80;2.33;;;;;;;;;;10440071;28;20045;-82
2022/06/14 13:13:15;;;;;;;5.60;3.00;;;;;;;;;;10425830;28;20033;-83
2022/06/14 13:18:30;;;;;;;5.18;1.85;;;;;;;;;;10411681;28;20029;-83
2022/06/14 13:23:50;;;;;;;5.35;1.90;;;;;;;;;;10428446;28;20025;-83
2022/06/14 13:28:51;;;;;;;3.83;1.60;;;;;;;;;;10410630;28;20127;-84
2022/06/14 13:34:14;;;;;;;2.78;1.52;;;;;;;;;;10429135;28;20167;-82
2022/06/14 13:39:22;;;;;;;3.83;1.90;;;;;;;;;;10409388;28;20076;-84
2022/06/14 13:44:26;;;;;;;5.40;2.00;;;;;;;;;;10411717;28;20029;-83
2022/06/14 13:49:36;;;;;;;4.43;2.22;;;;;;;;;;10411273;28;20040;-85
2022/06/14 13:54:43;;;;;;;7.57;2.53;;;;;;;;;;10407380;28;20060;-83
2022/06/14 13:59:46;;;;;;;5.10;1.90;;;;;;;;;;10410499;28;20088;-84
2022/06/14 14:04:57;;;;;;;4.95;2.00;;;;;;;;;;10411492;28;20022;-85
2022/06/14 14:10:10;;;;;;;3.00;1.65;;;;;;;;;;10410868;28;20582;-82
2022/06/14 14:15:14;;;;;;;4.20;1.67;;;;;;;;;;10409377;28;20108;-82
2022/06/14 14:20:35;;;;;;;4.35;1.95;;;;;;;;;;10413208;28;20035;-85
2022/06/14 14:25:39;;;;;;;13.05;9.77;;;;;;;;;;10419229;28;20040;-83
2022/06/14 14:30:40;;;;;;;5.03;2.00;;;;;;;;;;10417936;28;20069;-83
2022/06/14 14:35:49;;;;;;;3.65;1.55;;;;;;;;;;10418783;28;20029;-83
2022/06/14 14:46:17;;;;;;;4.70;2.33;;;;;;;;;;10439454;28;20025;-83
2022/06/14 14:51:30;;;;;;;3.25;1.50;;;;;;;;;;10416911;28;20116;-83
2022/06/14 14:56:36;;;;;;;4.22;1.60;;;;;;;;;;10418386;28;20414;-82
2022/06/14 15:07:20;;;;;;;3.85;1.50;;;;;;;;;;10409599;28;20030;-82
2022/06/14 15:12:27;;;;;;;5.43;2.13;;;;;;;;;;10417780;28;20057;-82
2022/06/14 15:19:54;;;;;;;6.22;1.70;;;;;;;;;;10420731;28;20030;-83
2022/06/14 15:23:04;;;;;;;7.18;1.90;;;;;;;;;;10451024;28;20036;-81
2022/06/14 15:28:08;;;;;;;7.68;5.47;;;;;;;;;;10439978;28;20041;-81
2022/06/14 15:33:12;;;;;;;3.55;1.80;;;;;;;;;;10438441;28;20029;-81
2022/06/14 15:38:22;;;;;;;3.88;1.45;;;;;;;;;;10432532;28;20037;-83
2022/06/14 15:43:25;;;;;;;4.53;1.67;;;;;;;;;;10419715;28;20021;-82
2022/06/14 15:48:31;;;;;;;6.57;1.73;;;;;;;;;;10417321;28;20351;-83
2022/06/14 15:53:32;;;;;;;2.95;1.50;;;;;;;;;;10418905;28;20025;-83
2022/06/14 15:58:40;;;;;;;3.47;1.60;;;;;;;;;;10419587;28;20121;-83
2022/06/14 16:03:43;;;;;;;3.03;1.60;;;;;;;;;;10417754;28;20097;-83
2022/06/14 16:08:57;;;;;;;4.35;1.60;;;;;;;;;;10417069;28;20072;-84
2022/06/14 16:14:00;;;;;;;4.70;1.65;;;;;;;;;;10418271;28;20029;-83
2022/06/14 16:19:19;;;;;;;3.95;1.45;;;;;;;;;;10422418;28;20124;-82
2022/06/14 16:24:22;;;;;;;5.30;1.50;;;;;;;;;;10420131;28;20030;-81
2022/06/14 16:29:34;;;;;;;4.35;2.00;;;;;;;;;;10417466;28;20025;-82
2022/06/14 16:34:42;;;;;;;4.18;1.30;;;;;;;;;;10416525;28;20029;-82
2022/06/14 16:39:48;;;;;;;3.05;1.88;;;;;;;;;;10432862;28;20037;-79
2022/06/14 16:44:49;;;;;;;3.17;1.40;;;;;;;;;;10436021;28;20025;-80
2022/06/14 16:49:53;;;;;;;5.13;2.65;;;;;;;;;;10418826;28;20025;-80
2022/06/14 16:55:23;;;;;;;3.08;1.65;;;;;;;;;;10421809;28;20467;-81
2022/06/14 17:00:30;;;;;;;3.30;1.23;;;;;;;;;;10401658;28;20037;-81
2022/06/14 17:05:36;;;;;;;4.00;1.30;;;;;;;;;;10416363;28;20022;-81
2022/06/14 17:10:42;;;;;;;2.05;1.20;;;;;;;;;;10415185;28;20053;-80
2022/06/14 17:15:47;;;;;;;5.03;2.15;;;;;;;;;;10414213;28;20029;-81
2022/06/14 17:20:52;;;;;;;3.53;1.38;;;;;;;;;;10413033;28;20037;-80
